createdAt,value
2023-03-26T00:01:39.366Z,20.63
2023-03-26T00:04:07.763Z,20.75
2023-03-26T00:06:39.285Z,19.88
2023-03-26T00:09:09.841Z,19.90
2023-03-26T00:11:37.029Z,18.08
2023-03-26T00:14:05.750Z,18.88
2023-03-26T00:16:33.404Z,18.35
2023-03-26T00:19:01.883Z,18.48
2023-03-26T00:21:30.975Z,18.07
2023-03-26T00:24:04.590Z,17.00
2023-03-26T00:26:38.493Z,18.05
2023-03-26T00:29:07.010Z,17.08
2023-03-26T00:31:35.929Z,16.10
2023-03-26T00:34:03.963Z,14.20
2023-03-26T00:36:31.491Z,14.07
2023-03-26T00:38:58.832Z,14.65
2023-03-26T00:41:31.154Z,13.82
2023-03-26T00:43:59.950Z,13.82
2023-03-26T00:46:29.787Z,13.20
2023-03-26T00:48:59.079Z,13.32
2023-03-26T00:51:28.285Z,13.50
2023-03-26T00:53:55.986Z,13.30
2023-03-26T00:56:23.272Z,14.07
2023-03-26T00:58:50.679Z,12.60
2023-03-26T01:01:27.520Z,12.90
2023-03-26T01:04:08.210Z,12.52
2023-03-26T01:06:39.147Z,14.68
2023-03-26T01:09:16.315Z,13.63
2023-03-26T01:11:44.393Z,13.63
2023-03-26T01:14:16.305Z,14.00
2023-03-26T01:16:50.139Z,15.02
2023-03-26T01:19:45.272Z,14.05
2023-03-26T01:22:22.134Z,13.60
2023-03-26T01:24:53.908Z,13.17
2023-03-26T01:27:35.908Z,13.70
2023-03-26T01:30:10.605Z,14.20
2023-03-26T01:32:47.724Z,13.02
2023-03-26T01:35:29.166Z,13.95
2023-03-26T01:38:02.096Z,13.60
2023-03-26T01:40:43.125Z,13.98
2023-03-26T01:43:24.539Z,13.70
2023-03-26T01:45:52.833Z,14.93
2023-03-26T01:48:20.783Z,13.85
2023-03-26T01:50:49.107Z,13.50
2023-03-26T01:53:16.185Z,14.98
2023-03-26T01:56:02.479Z,14.50
2023-03-26T01:58:37.346Z,14.23
2023-03-26T02:01:19.743Z,14.25
2023-03-26T02:04:11.400Z,14.10
2023-03-26T02:06:46.250Z,14.63
2023-03-26T02:09:20.371Z,14.50
2023-03-26T02:11:49.007Z,13.88
2023-03-26T02:14:16.564Z,13.93
2023-03-26T02:16:47.054Z,13.93
2023-03-26T02:19:21.820Z,14.02
2023-03-26T02:21:51.727Z,14.57
2023-03-26T02:24:20.634Z,14.00
2023-03-26T02:26:49.988Z,14.55
2023-03-26T02:29:20.533Z,15.27
2023-03-26T02:31:49.687Z,14.90
2023-03-26T02:34:17.210Z,16.35
2023-03-26T02:36:52.583Z,15.52
2023-03-26T02:39:19.843Z,16.10
2023-03-26T02:41:54.909Z,15.33
2023-03-26T02:44:22.156Z,16.80
2023-03-26T02:46:58.314Z,16.05
2023-03-26T02:49:44.081Z,15.63
2023-03-26T02:52:18.761Z,15.27
2023-03-26T02:54:48.536Z,15.83
2023-03-26T02:57:20.940Z,15.38
2023-03-26T03:00:26.582Z,17.00
2023-03-26T03:03:26.689Z,28.15
2023-03-26T03:05:59.605Z,20.05
2023-03-26T03:08:46.598Z,16.90
2023-03-26T03:11:22.290Z,16.65
2023-03-26T03:13:51.515Z,16.80
2023-03-26T03:16:24.816Z,17.80
2023-03-26T03:18:57.768Z,21.40
2023-03-26T03:21:36.265Z,24.07
2023-03-26T03:24:03.998Z,22.95
2023-03-26T03:26:36.620Z,21.65
2023-03-26T03:29:22.024Z,20.90
2023-03-26T03:31:49.558Z,19.45
2023-03-26T03:34:33.474Z,19.27
2023-03-26T03:37:00.782Z,17.67
2023-03-26T03:39:35.030Z,18.50
2023-03-26T03:42:02.438Z,17.15
2023-03-26T03:44:29.835Z,18.17
2023-03-26T03:46:57.428Z,16.40
2023-03-26T03:49:24.512Z,16.85
2023-03-26T03:51:51.789Z,17.45
2023-03-26T03:54:28.605Z,17.65
2023-03-26T03:57:10.235Z,18.45
2023-03-26T03:59:53.206Z,17.73
2023-03-26T04:02:26.608Z,18.00
2023-03-26T04:04:58.571Z,18.25
2023-03-26T04:07:26.759Z,18.25
2023-03-26T04:10:08.848Z,17.67
2023-03-26T04:12:54.576Z,16.57
2023-03-26T04:15:36.318Z,18.23
2023-03-26T04:18:04.051Z,23.58
2023-03-26T04:20:32.281Z,19.63
2023-03-26T04:23:00.724Z,18.02
2023-03-26T04:25:30.553Z,17.40
2023-03-26T04:28:08.732Z,18.50
2023-03-26T04:30:49.038Z,17.95
2023-03-26T04:33:33.751Z,19.05
2023-03-26T04:36:03.197Z,20.38
2023-03-26T04:38:45.984Z,18.30
2023-03-26T04:41:15.953Z,20.88
2023-03-26T04:43:53.602Z,19.88
2023-03-26T04:46:33.807Z,20.23
2023-03-26T04:49:11.139Z,22.13
2023-03-26T04:51:42.042Z,24.63
2023-03-26T04:54:29.123Z,24.75
2023-03-26T04:57:06.305Z,25.73
2023-03-26T04:59:43.125Z,25.85
2023-03-26T05:02:14.190Z,27.23
2023-03-26T05:04:59.330Z,27.33
2023-03-26T05:07:30.433Z,29.30
2023-03-26T05:10:03.567Z,29.65
2023-03-26T05:12:52.775Z,29.08
2023-03-26T05:15:28.472Z,27.08
2023-03-26T05:18:16.903Z,27.63
2023-03-26T05:20:48.735Z,25.75
2023-03-26T05:23:15.761Z,25.33
2023-03-26T05:25:47.290Z,24.80
2023-03-26T05:28:24.818Z,26.20
2023-03-26T05:30:56.528Z,24.57
2023-03-26T05:33:27.268Z,24.73
2023-03-26T05:36:08.067Z,24.10
2023-03-26T05:38:35.953Z,23.00
2023-03-26T05:41:08.291Z,23.65
2023-03-26T05:43:37.657Z,22.83
2023-03-26T05:46:12.483Z,25.73
2023-03-26T05:48:39.722Z,23.60
2023-03-26T05:51:08.273Z,23.85
2023-03-26T05:53:39.580Z,25.70
2023-03-26T05:56:26.596Z,28.13
2023-03-26T05:59:12.601Z,28.00
2023-03-26T06:01:58.102Z,25.63
2023-03-26T06:04:46.072Z,24.73
2023-03-26T06:07:34.105Z,23.15
2023-03-26T06:10:18.398Z,21.33
2023-03-26T06:12:46.572Z,19.98
2023-03-26T06:15:14.058Z,21.40
2023-03-26T06:17:58.553Z,21.38
2023-03-26T06:20:37.676Z,22.15
2023-03-26T06:23:16.228Z,22.17
2023-03-26T06:26:01.867Z,23.05
2023-03-26T06:28:58.304Z,21.55
2023-03-26T06:31:44.175Z,22.48
2023-03-26T06:34:16.284Z,20.17
2023-03-26T06:36:43.269Z,20.00
2023-03-26T06:39:10.751Z,19.90
2023-03-26T06:41:45.430Z,19.95
2023-03-26T06:44:39.322Z,17.20
2023-03-26T06:47:24.902Z,16.77
2023-03-26T06:50:12.038Z,15.70
2023-03-26T06:53:05.072Z,16.77
2023-03-26T06:55:54.105Z,15.90
2023-03-26T06:58:39.466Z,16.80
2023-03-26T07:01:21.934Z,15.57
2023-03-26T07:04:07.361Z,16.30
2023-03-26T07:06:52.977Z,15.32
2023-03-26T07:09:38.456Z,13.00
2023-03-26T07:12:44.123Z,12.55
2023-03-26T07:15:37.314Z,13.55
2023-03-26T07:18:10.473Z,14.03
2023-03-26T07:20:39.695Z,13.65
2023-03-26T07:23:07.500Z,13.43
2023-03-26T07:25:53.022Z,13.20
2023-03-26T07:29:04.666Z,11.02
2023-03-26T07:31:48.171Z,12.10
2023-03-26T07:34:55.933Z,15.32
2023-03-26T07:37:39.735Z,12.50
2023-03-26T07:40:36.165Z,11.95
2023-03-26T07:43:41.704Z,12.80
2023-03-26T07:46:12.164Z,10.50
2023-03-26T07:48:51.937Z,10.27
2023-03-26T07:51:34.599Z,9.80
2023-03-26T07:54:13.382Z,9.88
2023-03-26T07:57:06.864Z,12.40
2023-03-26T07:59:51.177Z,10.07
2023-03-26T08:02:52.269Z,10.27
2023-03-26T08:06:02.075Z,10.27
2023-03-26T08:08:40.371Z,10.52
2023-03-26T08:11:58.357Z,9.93
2023-03-26T08:14:25.372Z,9.90
2023-03-26T08:17:04.358Z,9.93
2023-03-26T08:19:40.929Z,10.27
2023-03-26T08:22:20.905Z,11.77
2023-03-26T08:25:20.148Z,9.85
2023-03-26T08:27:55.947Z,10.87
2023-03-26T08:30:25.569Z,11.27
2023-03-26T08:33:00.008Z,9.57
2023-03-26T08:35:28.668Z,9.32
2023-03-26T08:37:55.916Z,9.50
2023-03-26T08:40:58.362Z,9.30
2023-03-26T08:43:31.253Z,10.00
2023-03-26T08:46:17.132Z,10.82
2023-03-26T08:49:16.888Z,10.85
2023-03-26T08:52:00.740Z,10.00
2023-03-26T08:54:57.116Z,8.57
2023-03-26T08:57:52.474Z,9.00
2023-03-26T09:00:37.989Z,9.10
2023-03-26T09:03:25.540Z,10.10
2023-03-26T09:06:17.070Z,9.00
2023-03-26T09:09:04.695Z,8.90
2023-03-26T09:11:54.656Z,8.77
2023-03-26T09:14:46.208Z,9.13
2023-03-26T09:17:28.648Z,8.48
2023-03-26T09:20:02.640Z,10.00
2023-03-26T09:22:32.865Z,8.80
2023-03-26T09:25:14.752Z,8.38
2023-03-26T09:28:22.035Z,9.07
2023-03-26T09:31:07.725Z,9.20
2023-03-26T09:33:53.989Z,8.95
2023-03-26T09:36:45.970Z,8.57
2023-03-26T09:39:39.273Z,8.30
2023-03-26T09:42:24.630Z,8.30
2023-03-26T09:45:10.704Z,8.20
2023-03-26T09:47:56.481Z,8.68
2023-03-26T09:50:56.590Z,8.67
2023-03-26T09:53:41.829Z,7.38
2023-03-26T09:56:24.034Z,8.27
2023-03-26T09:59:09.373Z,8.07
2023-03-26T10:02:04.628Z,7.95
2023-03-26T10:05:04.843Z,8.20
2023-03-26T10:07:40.847Z,8.27
2023-03-26T10:10:45.165Z,8.43
2023-03-26T10:13:18.466Z,9.27
2023-03-26T10:16:24.625Z,8.77
2023-03-26T10:19:10.545Z,8.33
2023-03-26T10:21:51.339Z,8.85
2023-03-26T10:24:30.486Z,9.43
2023-03-26T10:27:08.397Z,9.18
2023-03-26T10:30:16.864Z,9.48
2023-03-26T10:33:05.289Z,10.20
2023-03-26T10:35:42.112Z,9.43
2023-03-26T10:38:47.025Z,10.80
2023-03-26T10:41:23.040Z,10.27
2023-03-26T10:44:27.723Z,10.73
2023-03-26T10:47:01.198Z,11.17
2023-03-26T10:49:54.097Z,10.18
2023-03-26T10:52:34.652Z,11.60
2023-03-26T10:55:12.186Z,11.15
2023-03-26T10:57:52.271Z,11.65
2023-03-26T11:00:25.574Z,10.83
2023-03-26T11:03:20.842Z,11.65
2023-03-26T11:05:58.364Z,11.38
2023-03-26T11:08:52.812Z,12.00
2023-03-26T11:11:32.690Z,13.15
2023-03-26T11:14:13.692Z,11.90
2023-03-26T11:16:49.643Z,12.75
2023-03-26T11:19:37.313Z,13.15
2023-03-26T11:22:32.328Z,13.20
2023-03-26T11:25:05.744Z,14.50
2023-03-26T11:27:44.662Z,12.90
2023-03-26T11:30:17.628Z,13.45
2023-03-26T11:32:48.471Z,14.57
2023-03-26T11:35:40.477Z,14.75
2023-03-26T11:38:33.651Z,13.98
2023-03-26T11:41:03.801Z,13.47
2023-03-26T11:44:28.898Z,14.32
2023-03-26T11:47:01.741Z,14.77
2023-03-26T11:49:29.627Z,15.15
2023-03-26T11:51:56.927Z,16.10
2023-03-26T11:54:23.987Z,16.50
2023-03-26T11:57:12.283Z,16.23
2023-03-26T11:59:56.367Z,16.73
2023-03-26T12:02:29.920Z,16.10
2023-03-26T12:05:12.988Z,16.50
2023-03-26T12:07:52.937Z,15.53
2023-03-26T12:10:33.007Z,16.15
2023-03-26T12:13:03.428Z,16.92
2023-03-26T12:15:32.368Z,14.85
2023-03-26T12:18:17.731Z,15.07
2023-03-26T12:20:45.344Z,15.53
2023-03-26T12:23:42.621Z,14.55
2023-03-26T12:26:19.327Z,16.23
2023-03-26T12:28:49.734Z,15.23
2023-03-26T12:31:19.677Z,16.33
2023-03-26T12:34:35.559Z,14.83
2023-03-26T12:37:05.030Z,14.73
2023-03-26T12:40:10.555Z,15.27
2023-03-26T12:44:49.991Z,14.93
2023-03-26T12:45:31.467Z,14.50
2023-03-26T12:48:03.873Z,15.20
2023-03-26T12:50:57.783Z,14.48
2023-03-26T12:53:53.646Z,14.05
2023-03-26T12:56:37.003Z,14.43
2023-03-26T12:59:42.996Z,14.88
2023-03-26T13:02:48.765Z,14.03
2023-03-26T13:05:34.499Z,14.90
2023-03-26T13:08:25.988Z,13.85
2023-03-26T13:11:17.886Z,13.95
2023-03-26T13:13:52.970Z,13.52
2023-03-26T13:16:44.934Z,12.80
2023-03-26T13:19:34.379Z,14.13
2023-03-26T13:22:25.740Z,13.68
2023-03-26T13:25:25.132Z,14.50
2023-03-26T13:28:26.745Z,12.55
2023-03-26T13:31:07.651Z,13.40
2023-03-26T13:33:46.996Z,13.73
2023-03-26T13:36:31.890Z,12.48
2023-03-26T13:39:08.380Z,12.85
2023-03-26T13:41:47.430Z,12.95
2023-03-26T13:44:49.705Z,13.13
2023-03-26T13:47:22.661Z,12.23
2023-03-26T13:50:02.772Z,11.63
2023-03-26T13:52:40.078Z,12.25
2023-03-26T13:55:27.398Z,12.75
2023-03-26T13:58:12.403Z,11.33
2023-03-26T14:01:12.477Z,12.18
2023-03-26T14:04:01.081Z,12.40
2023-03-26T14:06:59.220Z,11.60
2023-03-26T14:09:43.139Z,13.68
2023-03-26T14:12:44.763Z,11.13
2023-03-26T14:15:16.604Z,12.15
2023-03-26T14:17:59.015Z,11.43
2023-03-26T14:20:50.374Z,10.93
2023-03-26T14:23:20.328Z,11.38
2023-03-26T14:26:08.429Z,11.37
2023-03-26T14:28:54.083Z,10.57
2023-03-26T14:31:38.802Z,9.73
2023-03-26T14:34:38.629Z,10.43
2023-03-26T14:37:27.019Z,11.50
2023-03-26T14:40:15.190Z,10.17
2023-03-26T14:43:08.114Z,11.05
2023-03-26T14:45:41.521Z,10.90
2023-03-26T14:48:27.964Z,10.13
2023-03-26T14:51:07.339Z,10.50
2023-03-26T14:53:40.519Z,9.40
2023-03-26T14:56:15.664Z,10.38
2023-03-26T14:59:04.754Z,10.23
2023-03-26T15:01:59.146Z,9.13
2023-03-26T15:04:35.401Z,9.57
2023-03-26T15:07:39.153Z,10.00
2023-03-26T15:10:54.032Z,9.63
2023-03-26T15:13:55.092Z,10.40
2023-03-26T15:17:11.070Z,9.05
2023-03-26T15:20:00.089Z,8.90
2023-03-26T15:22:45.791Z,8.23
2023-03-26T15:25:33.980Z,9.00
2023-03-26T15:28:19.728Z,8.70
2023-03-26T15:31:18.757Z,9.15
2023-03-26T15:34:12.310Z,8.43
2023-03-26T15:36:59.062Z,8.10
2023-03-26T15:40:10.037Z,9.05
2023-03-26T15:42:58.764Z,9.55
2023-03-26T15:45:48.090Z,8.65
2023-03-26T15:48:59.436Z,8.38
2023-03-26T15:51:46.365Z,8.27
2023-03-26T15:54:33.318Z,9.00
2023-03-26T15:57:24.985Z,8.63
2023-03-26T15:59:52.381Z,9.13
2023-03-26T16:02:58.312Z,8.68
2023-03-26T16:06:06.279Z,9.47
2023-03-26T16:09:11.706Z,8.18
2023-03-26T16:11:54.318Z,7.38
2023-03-26T16:14:24.627Z,8.13
2023-03-26T16:16:56.080Z,7.88
2023-03-26T16:19:23.150Z,7.53
2023-03-26T16:22:00.380Z,7.88
2023-03-26T16:24:30.809Z,8.43
2023-03-26T16:27:08.340Z,7.93
2023-03-26T16:30:01.131Z,7.80
2023-03-26T16:32:34.861Z,8.57
2023-03-26T16:35:24.102Z,9.15
2023-03-26T16:38:05.974Z,8.10
2023-03-26T16:40:36.249Z,8.73
2023-03-26T16:43:31.006Z,8.38
2023-03-26T16:46:20.049Z,8.30
2023-03-26T16:48:55.629Z,9.00
2023-03-26T16:51:53.799Z,9.52
2023-03-26T16:54:39.835Z,7.88
2023-03-26T16:57:45.606Z,7.72
2023-03-26T17:00:46.240Z,7.73
2023-03-26T17:03:27.208Z,13.68
2023-03-26T17:05:54.176Z,7.80
2023-03-26T17:08:42.251Z,8.02
2023-03-26T17:11:38.569Z,8.63
2023-03-26T17:14:23.628Z,7.83
2023-03-26T17:17:02.760Z,8.45
2023-03-26T17:19:42.027Z,8.30
2023-03-26T17:22:42.557Z,7.85
2023-03-26T17:25:52.747Z,8.10
2023-03-26T17:29:04.248Z,8.33
2023-03-26T17:31:59.649Z,8.13
2023-03-26T17:34:38.575Z,9.05
2023-03-26T17:37:21.559Z,8.27
2023-03-26T17:39:58.014Z,8.52
2023-03-26T17:42:33.162Z,8.07
2023-03-26T17:45:02.856Z,8.30
2023-03-26T17:47:41.674Z,8.35
2023-03-26T17:50:14.725Z,7.97
2023-03-26T17:53:05.368Z,10.68
2023-03-26T17:55:36.629Z,8.80
2023-03-26T17:58:06.932Z,7.97
2023-03-26T18:00:47.305Z,8.10
2023-03-26T18:03:31.248Z,8.00
2023-03-26T18:06:11.288Z,7.78
2023-03-26T18:08:56.862Z,7.67
2023-03-26T18:11:26.782Z,7.78
2023-03-26T18:14:38.880Z,6.93
2023-03-26T18:17:07.320Z,7.28
2023-03-26T18:19:53.628Z,7.35
2023-03-26T18:22:27.834Z,7.10
2023-03-26T18:24:59.900Z,7.03
2023-03-26T18:27:38.628Z,6.53
2023-03-26T18:30:16.344Z,7.10
2023-03-26T18:33:05.293Z,7.90
2023-03-26T18:35:39.802Z,6.70
2023-03-26T18:38:14.424Z,6.90
2023-03-26T18:40:44.275Z,6.65
2023-03-26T18:43:32.307Z,6.13
2023-03-26T18:46:03.007Z,6.60
2023-03-26T18:48:30.426Z,6.80
2023-03-26T18:51:04.791Z,6.50
2023-03-26T18:53:39.919Z,6.55
2023-03-26T18:56:31.910Z,7.10
2023-03-26T18:59:00.644Z,6.60
2023-03-26T19:01:32.176Z,6.53
2023-03-26T19:04:07.171Z,7.07
2023-03-26T19:06:40.072Z,6.30
2023-03-26T19:09:27.933Z,6.60
2023-03-26T19:12:05.519Z,7.28
2023-03-26T19:14:37.154Z,6.10
2023-03-26T19:17:07.132Z,7.15
2023-03-26T19:19:37.156Z,7.53
2023-03-26T19:22:06.123Z,6.70
2023-03-26T19:24:34.353Z,6.55
2023-03-26T19:27:02.848Z,6.10
2023-03-26T19:29:35.262Z,6.45
2023-03-26T19:32:15.571Z,6.13
2023-03-26T19:34:45.496Z,5.82
2023-03-26T19:37:31.555Z,5.50
2023-03-26T19:40:14.381Z,5.87
2023-03-26T19:42:44.786Z,6.05
2023-03-26T19:45:18.117Z,5.80
2023-03-26T19:47:48.667Z,5.90
2023-03-26T19:50:26.122Z,5.38
2023-03-26T19:53:17.294Z,5.93
2023-03-26T19:55:59.294Z,5.80
2023-03-26T19:58:27.401Z,6.60
2023-03-26T20:00:56.543Z,6.85
2023-03-26T20:03:46.369Z,6.93
2023-03-26T20:06:18.539Z,7.50
2023-03-26T20:08:46.649Z,7.80
2023-03-26T20:11:20.614Z,9.57
2023-03-26T20:13:48.610Z,9.23
2023-03-26T20:16:34.359Z,8.10
2023-03-26T20:19:02.571Z,6.87
2023-03-26T20:21:32.407Z,7.45
2023-03-26T20:23:59.579Z,8.25
2023-03-26T20:26:26.594Z,8.18
2023-03-26T20:28:53.973Z,7.95
2023-03-26T20:31:25.185Z,8.40
2023-03-26T20:33:54.035Z,8.95
2023-03-26T20:36:34.173Z,9.88
2023-03-26T20:39:08.530Z,10.27
2023-03-26T20:41:38.277Z,10.48
2023-03-26T20:44:13.877Z,10.33
2023-03-26T20:46:43.162Z,10.77
2023-03-26T20:49:11.688Z,11.52
2023-03-26T20:51:42.058Z,11.77
2023-03-26T20:54:21.566Z,9.90
2023-03-26T20:56:49.430Z,10.77
2023-03-26T20:59:21.835Z,10.57
2023-03-26T21:01:50.274Z,9.13
2023-03-26T21:04:17.947Z,9.23
2023-03-26T21:06:45.607Z,9.68
2023-03-26T21:09:18.370Z,9.40
2023-03-26T21:11:53.119Z,9.68
2023-03-26T21:14:26.140Z,9.57
2023-03-26T21:16:53.553Z,10.52
2023-03-26T21:19:21.205Z,10.05
2023-03-26T21:21:57.884Z,9.97
2023-03-26T21:24:33.249Z,10.18
2023-03-26T21:27:12.809Z,10.55
2023-03-26T21:29:40.372Z,9.93
2023-03-26T21:32:10.620Z,10.65
2023-03-26T21:34:42.121Z,9.93
2023-03-26T21:37:15.849Z,9.32
2023-03-26T21:39:44.962Z,9.63
2023-03-26T21:42:12.918Z,10.25
2023-03-26T21:44:40.209Z,9.05
2023-03-26T21:47:09.814Z,10.00
2023-03-26T21:49:38.615Z,8.48
2023-03-26T21:52:05.941Z,10.50
2023-03-26T21:54:33.555Z,8.50
2023-03-26T21:57:12.808Z,9.98
2023-03-26T22:00:01.377Z,8.60
2023-03-26T22:02:54.701Z,7.68
2023-03-26T22:05:48.363Z,8.48
2023-03-26T22:08:33.942Z,8.48
2023-03-26T22:11:01.528Z,8.05
2023-03-26T22:13:28.774Z,8.37
2023-03-26T22:15:56.969Z,8.50
2023-03-26T22:18:26.141Z,8.77
2023-03-26T22:20:53.385Z,8.95
2023-03-26T22:23:20.984Z,8.45
2023-03-26T22:25:48.123Z,10.37
2023-03-26T22:28:15.699Z,7.85
2023-03-26T22:30:42.801Z,8.23
2023-03-26T22:33:12.564Z,6.88
2023-03-26T22:35:42.095Z,6.57
2023-03-26T22:38:09.839Z,7.00
2023-03-26T22:40:37.041Z,5.72
2023-03-26T22:43:04.732Z,6.13
2023-03-26T22:45:32.674Z,5.97
2023-03-26T22:48:03.078Z,6.72
2023-03-26T22:50:31.529Z,6.33
2023-03-26T22:52:58.653Z,5.70
2023-03-26T22:55:29.050Z,4.97
2023-03-26T22:57:57.584Z,5.72
2023-03-26T23:00:26.642Z,5.07
2023-03-26T23:02:55.967Z,5.90
2023-03-26T23:05:23.789Z,6.07
2023-03-26T23:07:52.319Z,6.00
2023-03-26T23:10:19.496Z,6.43
2023-03-26T23:12:46.716Z,7.38
2023-03-26T23:15:14.190Z,8.33
2023-03-26T23:17:41.499Z,7.55
2023-03-26T23:20:14.758Z,7.53
2023-03-26T23:22:43.277Z,7.13
2023-03-26T23:25:11.817Z,7.35
2023-03-26T23:27:40.363Z,6.40
2023-03-26T23:30:08.328Z,6.07
2023-03-26T23:32:38.129Z,6.65
2023-03-26T23:35:06.177Z,7.18
2023-03-26T23:37:35.296Z,6.40
2023-03-26T23:40:07.522Z,6.93
2023-03-26T23:42:34.658Z,6.53
2023-03-26T23:45:02.168Z,7.50
2023-03-26T23:47:34.874Z,7.25
2023-03-26T23:50:05.440Z,6.78
2023-03-26T23:52:32.565Z,7.17
2023-03-26T23:55:02.793Z,7.20
2023-03-26T23:57:30.702Z,7.15
2023-03-26T23:59:58.467Z,7.20
